createdAt,value
2022-12-23T00:01:27.787Z,80.89
2022-12-23T00:03:59.423Z,77.98
2022-12-23T00:06:27.102Z,75.59
2022-12-23T00:08:59.076Z,77.18
2022-12-23T00:11:29.449Z,78.93
2022-12-23T00:14:21.652Z,80.97
2022-12-23T00:16:52.336Z,81.68
2022-12-23T00:19:20.306Z,80.49
2022-12-23T00:21:48.760Z,76.04
2022-12-23T00:24:21.206Z,75.95
2022-12-23T00:26:50.784Z,77.55
2022-12-23T00:29:23.323Z,79.02
2022-12-23T00:31:54.412Z,80.05
2022-12-23T00:34:21.199Z,80.83
2022-12-23T00:36:48.076Z,81.11
2022-12-23T00:39:33.560Z,82.47
2022-12-23T00:42:18.926Z,82.70
2022-12-23T00:44:48.703Z,83.61
2022-12-23T00:47:35.487Z,84.29
2022-12-23T00:50:02.364Z,84.56
2022-12-23T00:52:29.171Z,84.42
2022-12-23T00:55:01.351Z,84.02
2022-12-23T00:57:29.822Z,84.29
2022-12-23T00:59:56.921Z,84.33
2022-12-23T01:02:45.660Z,83.29
2022-12-23T01:05:41.434Z,82.15
2022-12-23T01:08:10.838Z,83.47
2022-12-23T01:10:39.323Z,83.42
2022-12-23T01:13:09.589Z,83.64
2022-12-23T01:15:39.184Z,83.44
2022-12-23T01:18:06.169Z,83.08
2022-12-23T01:20:32.997Z,83.45
2022-12-23T01:22:59.861Z,83.86
2022-12-23T01:25:26.582Z,82.85
2022-12-23T01:27:53.318Z,82.70
2022-12-23T01:30:23.190Z,84.11
2022-12-23T01:32:50.049Z,81.85
2022-12-23T01:35:16.952Z,79.86
2022-12-23T01:37:44.468Z,76.59
2022-12-23T01:40:11.571Z,73.22
2022-12-23T01:42:45.376Z,73.41
2022-12-23T01:45:28.232Z,75.59
2022-12-23T01:48:01.869Z,77.97
2022-12-23T01:50:43.869Z,80.87
2022-12-23T01:53:30.452Z,76.28
2022-12-23T01:56:26.983Z,77.23
2022-12-23T01:59:01.192Z,79.46
2022-12-23T02:01:48.634Z,80.75
2022-12-23T02:04:22.004Z,81.78
2022-12-23T02:07:12.380Z,78.15
2022-12-23T02:09:41.078Z,77.07
2022-12-23T02:12:32.236Z,78.24
2022-12-23T02:15:42.653Z,79.56
2022-12-23T02:18:24.524Z,81.17
2022-12-23T02:21:16.430Z,82.30
2022-12-23T02:24:26.671Z,82.25
2022-12-23T02:27:03.152Z,82.73
2022-12-23T02:29:42.148Z,82.70
2022-12-23T02:32:36.386Z,79.35
2022-12-23T02:35:27.818Z,79.28
2022-12-23T02:38:03.061Z,80.98
2022-12-23T02:41:08.050Z,81.73
2022-12-23T02:43:53.940Z,82.86
2022-12-23T02:46:39.237Z,84.21
2022-12-23T02:49:35.142Z,78.87
2022-12-23T02:52:16.067Z,79.80
2022-12-23T02:54:49.661Z,76.63
2022-12-23T02:57:31.620Z,74.53
2022-12-23T03:00:00.507Z,72.58
2022-12-23T03:02:30.597Z,74.91
2022-12-23T03:04:57.471Z,77.19
2022-12-23T03:07:31.503Z,79.66
2022-12-23T03:10:16.579Z,78.86
2022-12-23T03:13:08.928Z,79.85
2022-12-23T03:15:35.710Z,80.24
2022-12-23T03:18:21.792Z,81.08
2022-12-23T03:21:09.288Z,80.61
2022-12-23T03:23:43.250Z,81.19
2022-12-23T03:26:17.101Z,81.89
2022-12-23T03:29:10.469Z,82.59
2022-12-23T03:31:42.119Z,83.16
2022-12-23T03:34:12.728Z,83.66
2022-12-23T03:36:48.360Z,83.84
2022-12-23T03:39:22.973Z,83.99
2022-12-23T03:42:13.551Z,84.40
2022-12-23T03:45:10.778Z,83.99
2022-12-23T03:47:48.175Z,83.38
2022-12-23T03:50:23.053Z,83.70
2022-12-23T03:53:02.231Z,84.40
2022-12-23T03:55:41.591Z,84.56
2022-12-23T03:58:33.849Z,84.85
2022-12-23T04:01:11.577Z,84.35
2022-12-23T04:04:15.880Z,82.88
2022-12-23T04:07:31.347Z,82.55
2022-12-23T04:09:59.173Z,82.60
2022-12-23T04:12:27.663Z,83.57
2022-12-23T04:14:54.522Z,81.13
2022-12-23T04:17:23.149Z,78.23
2022-12-23T04:19:51.046Z,78.84
2022-12-23T04:22:20.817Z,80.34
2022-12-23T04:24:47.726Z,81.28
2022-12-23T04:27:21.432Z,79.56
2022-12-23T04:29:48.314Z,78.21
2022-12-23T04:32:18.172Z,79.83
2022-12-23T04:34:48.487Z,78.82
2022-12-23T04:37:16.551Z,76.72
2022-12-23T04:39:45.862Z,78.38
2022-12-23T04:42:16.092Z,77.77
2022-12-23T04:44:57.649Z,76.27
2022-12-23T04:47:42.367Z,73.94
2022-12-23T04:50:14.105Z,76.27
2022-12-23T04:52:43.229Z,76.76
2022-12-23T04:55:14.134Z,75.95
2022-12-23T04:57:44.860Z,75.20
2022-12-23T05:00:12.353Z,75.77
2022-12-23T05:02:39.340Z,76.91
2022-12-23T05:05:06.688Z,78.59
2022-12-23T05:07:38.163Z,77.81
2022-12-23T05:10:05.232Z,75.45
2022-12-23T05:12:34.826Z,77.41
2022-12-23T05:15:04.347Z,78.50
2022-12-23T05:17:33.643Z,78.71
2022-12-23T05:20:04.695Z,79.60
2022-12-23T05:22:34.616Z,80.93
2022-12-23T05:25:07.522Z,78.08
2022-12-23T05:27:43.118Z,76.33
2022-12-23T05:30:12.806Z,76.12
2022-12-23T05:32:43.556Z,76.23
2022-12-23T05:35:14.559Z,75.62
2022-12-23T05:37:45.638Z,74.18
2022-12-23T05:40:18.473Z,73.75
2022-12-23T05:42:48.594Z,75.28
2022-12-23T05:45:26.648Z,75.88
2022-12-23T05:48:00.940Z,76.30
2022-12-23T05:50:32.078Z,75.75
2022-12-23T05:52:58.967Z,76.97
2022-12-23T05:55:29.269Z,76.52
2022-12-23T05:58:02.179Z,75.41
2022-12-23T06:00:33.219Z,74.78
2022-12-23T06:03:06.076Z,74.92
2022-12-23T06:05:33.353Z,71.59
2022-12-23T06:08:05.848Z,70.93
2022-12-23T06:10:32.572Z,74.54
2022-12-23T06:13:08.654Z,72.18
2022-12-23T06:15:35.440Z,71.27
2022-12-23T06:18:08.041Z,74.44
2022-12-23T06:20:35.210Z,73.09
2022-12-23T06:23:03.071Z,70.97
2022-12-23T06:25:32.566Z,73.76
2022-12-23T06:28:11.704Z,75.95
2022-12-23T06:30:39.187Z,75.83
2022-12-23T06:33:10.881Z,76.73
2022-12-23T06:35:45.315Z,77.81
2022-12-23T06:38:15.396Z,78.70
2022-12-23T06:40:47.732Z,79.82
2022-12-23T06:43:19.933Z,81.58
2022-12-23T06:45:52.925Z,82.15
2022-12-23T06:48:23.398Z,81.62
2022-12-23T06:50:50.553Z,78.18
2022-12-23T06:53:17.332Z,75.83
2022-12-23T06:55:47.048Z,76.68
2022-12-23T06:58:16.196Z,76.59
2022-12-23T07:00:47.070Z,74.00
2022-12-23T07:03:14.949Z,71.99
2022-12-23T07:05:51.510Z,71.36
2022-12-23T07:08:21.388Z,70.68
2022-12-23T07:10:51.523Z,69.73
2022-12-23T07:13:21.479Z,70.03
2022-12-23T07:15:48.266Z,70.17
2022-12-23T07:18:24.089Z,71.37
2022-12-23T07:20:54.689Z,70.41
2022-12-23T07:23:23.546Z,69.18
2022-12-23T07:25:51.041Z,68.57
2022-12-23T07:28:17.810Z,69.13
2022-12-23T07:30:49.560Z,68.37
2022-12-23T07:33:16.825Z,68.08
2022-12-23T07:35:52.649Z,69.74
2022-12-23T07:38:23.909Z,70.17
2022-12-23T07:40:53.882Z,69.10
2022-12-23T07:43:20.745Z,67.80
2022-12-23T07:46:00.047Z,67.10
2022-12-23T07:48:30.765Z,66.42
2022-12-23T07:51:08.051Z,66.43
2022-12-23T07:53:38.235Z,68.88
2022-12-23T07:56:13.744Z,70.47
2022-12-23T07:58:43.065Z,68.04
2022-12-23T08:01:11.528Z,68.66
2022-12-23T08:03:46.164Z,69.77
2022-12-23T08:06:20.337Z,70.40
2022-12-23T08:08:47.344Z,72.13
2022-12-23T08:11:15.595Z,70.96
2022-12-23T08:13:44.384Z,69.06
2022-12-23T08:16:12.429Z,69.59
2022-12-23T08:18:41.184Z,70.38
2022-12-23T08:21:17.573Z,71.79
2022-12-23T08:23:44.841Z,69.76
2022-12-23T08:26:21.092Z,69.43
2022-12-23T08:28:53.925Z,69.10
2022-12-23T08:31:33.035Z,68.16
2022-12-23T08:34:01.876Z,67.16
2022-12-23T08:36:33.992Z,67.49
2022-12-23T08:39:05.291Z,66.27
2022-12-23T08:41:35.865Z,66.43
2022-12-23T08:44:02.946Z,65.78
2022-12-23T08:46:29.913Z,65.11
2022-12-23T08:48:57.377Z,66.50
2022-12-23T08:51:25.568Z,68.09
2022-12-23T08:54:00.486Z,68.41
2022-12-23T08:56:32.052Z,68.92
2022-12-23T08:58:59.664Z,67.88
2022-12-23T09:01:31.745Z,68.72
2022-12-23T09:04:01.615Z,68.58
2022-12-23T09:06:32.066Z,68.73
2022-12-23T09:08:59.462Z,67.73
2022-12-23T09:11:29.468Z,67.75
2022-12-23T09:13:58.192Z,70.54
2022-12-23T09:16:25.173Z,69.67
2022-12-23T09:18:55.110Z,68.66
2022-12-23T09:21:23.684Z,68.78
2022-12-23T09:23:53.628Z,69.43
2022-12-23T09:26:27.247Z,67.74
2022-12-23T09:28:57.478Z,67.67
2022-12-23T09:31:34.128Z,66.79
2022-12-23T09:34:03.832Z,68.64
2022-12-23T09:36:30.779Z,70.37
2022-12-23T09:39:00.918Z,68.91
2022-12-23T09:41:42.477Z,67.54
2022-12-23T09:44:28.082Z,67.62
2022-12-23T09:46:58.853Z,67.55
2022-12-23T09:49:25.662Z,66.64
2022-12-23T09:51:57.695Z,67.52
2022-12-23T09:54:40.109Z,66.55
2022-12-23T09:57:22.889Z,67.42
2022-12-23T10:00:12.407Z,66.56
2022-12-23T10:03:11.411Z,66.46
2022-12-23T10:05:44.673Z,67.64
2022-12-23T10:08:24.856Z,68.24
2022-12-23T10:10:56.984Z,67.93
2022-12-23T10:13:31.344Z,68.81
2022-12-23T10:16:04.495Z,69.53
2022-12-23T10:18:56.201Z,69.72
2022-12-23T10:21:31.965Z,68.79
2022-12-23T10:24:03.658Z,67.62
2022-12-23T10:26:48.974Z,68.63
2022-12-23T10:29:21.369Z,68.98
2022-12-23T10:31:56.946Z,68.80
2022-12-23T10:34:38.752Z,69.66
2022-12-23T10:37:20.408Z,69.75
2022-12-23T10:40:13.149Z,71.40
2022-12-23T10:42:54.417Z,70.21
2022-12-23T10:45:42.986Z,69.86
2022-12-23T10:48:30.657Z,71.53
2022-12-23T10:51:08.728Z,70.41
2022-12-23T10:53:49.879Z,71.51
2022-12-23T10:56:17.656Z,72.79
2022-12-23T10:58:49.976Z,73.12
2022-12-23T11:01:26.189Z,72.55
2022-12-23T11:04:16.601Z,73.19
2022-12-23T11:06:50.584Z,74.17
2022-12-23T11:09:25.748Z,74.89
2022-12-23T11:12:02.067Z,75.13
2022-12-23T11:14:53.189Z,72.91
2022-12-23T11:17:35.311Z,70.47
2022-12-23T11:20:17.809Z,72.03
2022-12-23T11:22:56.864Z,70.12
2022-12-23T11:25:35.807Z,68.07
2022-12-23T11:28:17.312Z,67.59
2022-12-23T11:30:57.233Z,68.71
2022-12-23T11:33:33.775Z,70.63
2022-12-23T11:36:08.263Z,70.53
2022-12-23T11:38:38.079Z,70.50
2022-12-23T11:41:05.784Z,71.15
2022-12-23T11:43:34.177Z,70.15
2022-12-23T11:46:24.747Z,69.38
2022-12-23T11:49:19.856Z,69.06
2022-12-23T11:51:59.081Z,68.49
2022-12-23T11:54:25.914Z,67.41
2022-12-23T11:56:53.629Z,67.81
2022-12-23T11:59:28.752Z,68.36
2022-12-23T12:01:58.604Z,68.92
2022-12-23T12:04:29.080Z,68.51
2022-12-23T12:06:56.910Z,66.79
2022-12-23T12:09:25.035Z,66.49
2022-12-23T12:12:03.964Z,65.89
2022-12-23T12:14:46.015Z,65.14
2022-12-23T12:17:33.460Z,66.22
2022-12-23T12:20:32.087Z,64.44
2022-12-23T12:23:40.523Z,64.79
2022-12-23T12:26:43.604Z,64.99
2022-12-23T12:29:18.969Z,64.65
2022-12-23T12:31:49.300Z,65.90
2022-12-23T12:34:51.644Z,67.21
2022-12-23T12:37:30.016Z,67.12
2022-12-23T12:40:26.173Z,66.76
2022-12-23T12:43:24.633Z,66.16
2022-12-23T12:46:36.453Z,66.70
2022-12-23T12:49:15.091Z,68.19
2022-12-23T12:52:09.158Z,67.43
2022-12-23T12:55:00.748Z,68.14
2022-12-23T12:57:30.267Z,68.55
2022-12-23T13:00:10.421Z,70.70
2022-12-23T13:03:35.147Z,68.33
2022-12-23T13:06:38.365Z,67.48
2022-12-23T13:09:33.748Z,66.73
2022-12-23T13:12:24.820Z,65.49
2022-12-23T13:15:08.361Z,65.10
2022-12-23T13:17:52.651Z,65.11
2022-12-23T13:20:22.529Z,66.34
2022-12-23T13:23:42.725Z,65.82
2022-12-23T13:26:31.851Z,66.28
2022-12-23T13:29:20.921Z,66.83
2022-12-23T13:32:08.749Z,66.81
2022-12-23T13:35:23.275Z,66.68
2022-12-23T13:38:08.529Z,66.21
2022-12-23T13:41:12.443Z,65.57
2022-12-23T13:43:54.787Z,66.36
2022-12-23T13:46:38.343Z,66.87
2022-12-23T13:49:42.871Z,65.84
2022-12-23T13:52:21.614Z,65.02
2022-12-23T13:54:54.220Z,63.95
2022-12-23T13:58:00.850Z,64.14
2022-12-23T14:00:33.640Z,64.78
2022-12-23T14:03:01.133Z,64.41
2022-12-23T14:05:51.121Z,64.85
2022-12-23T14:08:28.095Z,66.39
2022-12-23T14:11:13.533Z,67.62
2022-12-23T14:14:02.943Z,67.12
2022-12-23T14:16:50.291Z,65.94
2022-12-23T14:19:50.119Z,66.21
2022-12-23T14:22:33.193Z,66.07
2022-12-23T14:25:26.639Z,66.22
2022-12-23T14:28:11.612Z,67.35
2022-12-23T14:30:48.798Z,67.46
2022-12-23T14:33:25.814Z,68.03
2022-12-23T14:35:56.063Z,68.12
2022-12-23T14:38:26.198Z,67.39
2022-12-23T14:40:55.477Z,68.41
2022-12-23T14:43:22.431Z,69.44
2022-12-23T14:45:51.368Z,69.36
2022-12-23T14:48:37.171Z,68.52
2022-12-23T14:51:22.071Z,68.58
2022-12-23T14:53:54.879Z,69.29
2022-12-23T14:56:29.552Z,68.62
2022-12-23T14:59:25.828Z,68.57
2022-12-23T15:02:12.848Z,69.53
2022-12-23T15:04:50.485Z,69.68
2022-12-23T15:07:44.237Z,70.08
2022-12-23T15:10:20.793Z,68.90
2022-12-23T15:13:03.723Z,67.90
2022-12-23T15:15:31.965Z,68.08
2022-12-23T15:18:21.913Z,67.70
2022-12-23T15:21:04.613Z,68.64
2022-12-23T15:23:31.464Z,68.18
2022-12-23T15:26:02.921Z,69.66
2022-12-23T15:28:46.263Z,69.71
2022-12-23T15:31:44.494Z,70.67
2022-12-23T15:34:19.014Z,69.66
2022-12-23T15:36:49.432Z,68.92
2022-12-23T15:39:25.304Z,68.64
2022-12-23T15:41:55.128Z,68.24
2022-12-23T15:44:25.365Z,67.13
2022-12-23T15:46:52.923Z,66.20
2022-12-23T15:49:21.872Z,65.99
2022-12-23T15:52:08.884Z,65.71
2022-12-23T15:54:45.567Z,65.83
2022-12-23T15:57:18.159Z,65.56
2022-12-23T15:59:47.997Z,65.62
2022-12-23T16:05:48.876Z,65.05
2022-12-23T16:08:29.083Z,65.27
2022-12-23T16:11:22.697Z,65.46
2022-12-23T16:14:00.471Z,65.42
2022-12-23T16:16:30.829Z,66.92
2022-12-23T16:18:57.667Z,65.74
2022-12-23T16:21:29.859Z,67.01
2022-12-23T16:23:58.185Z,67.26
2022-12-23T16:26:25.257Z,68.58
2022-12-23T16:28:57.692Z,69.23
2022-12-23T16:31:24.520Z,69.93
2022-12-23T16:33:59.249Z,69.39
2022-12-23T16:36:38.536Z,69.83
2022-12-23T16:39:26.811Z,68.92
2022-12-23T16:42:04.396Z,69.34
2022-12-23T16:44:37.472Z,68.17
2022-12-23T16:47:17.016Z,67.72
2022-12-23T16:49:47.901Z,66.40
2022-12-23T16:52:23.094Z,66.63
2022-12-23T16:54:55.829Z,67.69
2022-12-23T16:57:22.510Z,68.75
2022-12-23T16:59:55.092Z,69.65
2022-12-23T17:02:32.086Z,69.28
2022-12-23T17:05:03.768Z,70.57
2022-12-23T17:07:35.854Z,70.05
2022-12-23T17:10:12.415Z,70.74
2022-12-23T17:12:39.377Z,71.06
2022-12-23T17:15:07.752Z,71.42
2022-12-23T17:17:36.357Z,71.76
2022-12-23T17:20:11.124Z,71.49
2022-12-23T17:22:51.673Z,72.45
2022-12-23T17:25:26.753Z,72.39
2022-12-23T17:27:55.682Z,72.88
2022-12-23T17:30:27.675Z,72.67
2022-12-23T17:33:02.373Z,73.00
2022-12-23T17:35:31.596Z,74.15
2022-12-23T17:37:58.432Z,72.21
2022-12-23T17:40:28.235Z,70.08
2022-12-23T17:42:55.860Z,68.79
2022-12-23T17:45:30.259Z,68.20
2022-12-23T17:48:00.123Z,68.21
2022-12-23T17:50:35.989Z,69.65
2022-12-23T17:53:04.497Z,70.99
2022-12-23T17:55:31.481Z,71.70
2022-12-23T17:58:01.759Z,72.04
2022-12-23T18:00:34.409Z,72.60
2022-12-23T18:03:07.501Z,72.71
2022-12-23T18:05:39.274Z,73.03
2022-12-23T18:08:06.093Z,71.52
2022-12-23T18:10:44.980Z,70.05
2022-12-23T18:13:18.781Z,69.20
2022-12-23T18:15:46.160Z,70.54
2022-12-23T18:18:28.648Z,71.44
2022-12-23T18:21:02.150Z,72.58
2022-12-23T18:23:41.312Z,73.59
2022-12-23T18:26:15.347Z,73.37
2022-12-23T18:28:45.610Z,73.97
2022-12-23T18:31:35.719Z,74.00
2022-12-23T18:34:07.212Z,74.25
2022-12-23T18:36:34.278Z,74.54
2022-12-23T18:39:01.237Z,73.92
2022-12-23T18:41:28.312Z,73.16
2022-12-23T18:43:55.435Z,71.27
2022-12-23T18:46:22.539Z,70.18
2022-12-23T18:48:49.762Z,71.11
2022-12-23T18:51:21.225Z,69.64
2022-12-23T18:53:53.608Z,68.73
2022-12-23T18:56:24.628Z,69.86
2022-12-23T18:58:51.861Z,71.48
2022-12-23T19:01:23.619Z,70.82
2022-12-23T19:04:04.523Z,70.25
2022-12-23T19:06:32.207Z,71.19
2022-12-23T19:08:58.911Z,70.61
2022-12-23T19:11:25.685Z,68.80
2022-12-23T19:14:01.538Z,67.81
2022-12-23T19:16:30.773Z,69.08
2022-12-23T19:19:00.142Z,71.76
2022-12-23T19:21:30.099Z,73.10
2022-12-23T19:24:02.948Z,74.42
2022-12-23T19:26:29.767Z,75.79
2022-12-23T19:28:56.449Z,75.55
2022-12-23T19:31:28.283Z,76.32
2022-12-23T19:34:01.852Z,75.38
2022-12-23T19:36:28.892Z,73.62
2022-12-23T19:38:59.241Z,75.68
2022-12-23T19:41:26.062Z,75.16
2022-12-23T19:43:52.887Z,74.74
2022-12-23T19:46:23.079Z,74.74
2022-12-23T19:48:59.139Z,75.20
2022-12-23T19:51:25.966Z,71.87
2022-12-23T19:54:01.268Z,70.15
2022-12-23T19:56:33.386Z,69.21
2022-12-23T19:59:00.560Z,72.10
2022-12-23T20:01:30.898Z,72.91
2022-12-23T20:03:58.756Z,71.99
2022-12-23T20:06:30.266Z,74.11
2022-12-23T20:09:00.800Z,74.72
2022-12-23T20:11:30.937Z,75.59
2022-12-23T20:13:58.582Z,76.84
2022-12-23T20:16:26.469Z,76.94
2022-12-23T20:18:53.608Z,76.91
2022-12-23T20:21:27.356Z,76.51
2022-12-23T20:23:58.160Z,76.78
2022-12-23T20:26:29.529Z,75.73
2022-12-23T20:28:59.821Z,74.90
2022-12-23T20:31:31.990Z,74.63
2022-12-23T20:34:05.194Z,75.67
2022-12-23T20:36:34.590Z,76.44
2022-12-23T20:39:03.617Z,76.78
2022-12-23T20:41:31.575Z,76.00
2022-12-23T20:46:45.986Z,76.44
2022-12-23T20:49:12.783Z,76.73
2022-12-23T20:51:40.617Z,74.91
2022-12-23T20:54:10.298Z,74.91
2022-12-23T20:56:37.029Z,74.94
2022-12-23T20:59:04.797Z,74.62
2022-12-23T21:01:43.805Z,75.36
2022-12-23T21:04:18.505Z,76.29
2022-12-23T21:06:45.428Z,77.19
2022-12-23T21:09:13.939Z,77.74
2022-12-23T21:11:46.273Z,78.88
2022-12-23T21:14:14.602Z,78.40
2022-12-23T21:16:42.075Z,77.67
2022-12-23T21:19:13.824Z,78.16
2022-12-23T21:21:40.539Z,79.00
2022-12-23T21:24:07.424Z,79.51
2022-12-23T21:26:37.937Z,80.04
2022-12-23T21:29:06.767Z,80.00
2022-12-23T21:31:36.686Z,80.08
2022-12-23T21:34:04.262Z,80.35
2022-12-23T21:36:34.318Z,81.08
2022-12-23T21:39:02.033Z,80.96
2022-12-23T21:41:31.167Z,81.12
2022-12-23T21:43:59.869Z,81.00
2022-12-23T21:46:30.674Z,80.79
2022-12-23T21:49:00.666Z,80.89
2022-12-23T21:51:39.531Z,81.43
2022-12-23T21:54:07.989Z,81.64
2022-12-23T21:56:34.979Z,81.42
2022-12-23T21:59:12.590Z,81.08
2022-12-23T22:01:40.012Z,80.57
2022-12-23T22:04:07.612Z,80.64
2022-12-23T22:06:38.037Z,80.45
2022-12-23T22:09:07.275Z,80.07
2022-12-23T22:11:36.032Z,79.97
2022-12-23T22:14:04.443Z,80.08
2022-12-23T22:16:32.322Z,79.77
2022-12-23T22:19:01.075Z,80.07
2022-12-23T22:21:30.511Z,81.21
2022-12-23T22:23:57.638Z,80.67
2022-12-23T22:26:27.551Z,81.29
2022-12-23T22:28:56.204Z,80.68
2022-12-23T22:31:27.539Z,80.79
2022-12-23T22:33:54.424Z,80.15
2022-12-23T22:36:21.268Z,78.94
2022-12-23T22:39:07.927Z,77.19
2022-12-23T22:41:37.645Z,77.34
2022-12-23T22:44:04.594Z,78.01
2022-12-23T22:46:31.429Z,78.41
2022-12-23T22:49:03.905Z,78.67
2022-12-23T22:51:31.665Z,78.30
2022-12-23T22:53:58.986Z,77.65
2022-12-23T22:56:26.376Z,77.80
2022-12-23T22:58:54.815Z,78.29
2022-12-23T23:01:28.584Z,78.54
2022-12-23T23:03:57.618Z,77.60
2022-12-23T23:06:25.978Z,77.60
2022-12-23T23:08:53.360Z,78.74
2022-12-23T23:11:20.256Z,78.58
2022-12-23T23:13:47.166Z,78.62
2022-12-23T23:16:14.076Z,78.77
2022-12-23T23:18:40.885Z,79.14
2022-12-23T23:21:08.389Z,79.00
2022-12-23T23:23:38.587Z,80.05
2022-12-23T23:26:11.309Z,80.58
2022-12-23T23:28:39.566Z,80.90
2022-12-23T23:31:40.684Z,80.76
2022-12-23T23:33:54.338Z,80.91
2022-12-23T23:36:21.488Z,81.04
2022-12-23T23:38:48.385Z,81.37
2022-12-23T23:41:22.500Z,79.15
2022-12-23T23:43:49.955Z,75.84
2022-12-23T23:46:16.746Z,73.84
2022-12-23T23:48:43.539Z,72.86
2022-12-23T23:51:10.313Z,73.24
2022-12-23T23:53:37.104Z,72.02
2022-12-23T23:56:23.821Z,70.55
2022-12-23T23:58:52.193Z,71.61
